Airfield :
LOGIN :

Register | Disclaimer

   EN    FR    IT 

 










Legend :    VFR   Marginal VFR   IFR   Intensive IFR   Very Intensive IFR
Visi :
Ceiling :
>= 8 km
>= 3000ft
5 to 8 km
1000 to 3000 ft
1500m to 5 km
500 to 1000 ft
800 to 1500m
200 to 500 ft
< 800m
< 200 ft
Symbols :   Thunderstorms  Fog  Heavy snow  Heavy precipitations  Wind > 20 kt
SIGMETs :     Misc.  Thunderstorms  Icing  Turbulence  Mountain Waves  Volcanic Ashes







- Airport Elevation : 466 ft


LHPA - Pápa

CURRENT METAR :
  • 200315Z 22006KT CAVOK 00/M02 Q1016 NOSIG RMK BLU

EXPIRED METARs :
  • 200245Z 21008KT CAVOK 00/M02 Q1015 NOSIG RMK BLU
  • 200215Z 22008KT CAVOK 00/M02 Q1015 NOSIG RMK BLU
  • 200145Z 22006KT CAVOK M00/M02 Q1015 NOSIG RMK BLU
  • 200115Z 20006KT CAVOK 00/M01 Q1015 NOSIG RMK BLU
  • 200045Z 19006KT CAVOK 00/M01 Q1015 NOSIG RMK BLU

TAF TAF LHPA
Valid from the 20 at 00:00 until the 21 at 00:00 UTC


192315Z 2000/2024 30006KT CAVOK
TEMPO 2000/2003 24004KT 5000 BR NSC
PROB30
TEMPO 2009/2012 8000 -SHRA -SHSN SCT030TCU SCT080
BECMG 2009/2012 30012G22KT
BECMG 2015/2018 24006KT
No reported NOTAMs for that airfield.



MET'MAP, your aeronautical weather chart ! - Copyright ORBIFLY December 2007 - Disclaimer

ORBIFLY MET'MAP TEAM :

Programming & Development : Alexandra Zaïnal
Concept & Development : Baudouin d'Aumeries
Co-Development & Prog : Marc-Olivier Méhu
Technical & hardware support : Manuel Goepfert

Contact : metmap@orbifly.com




SOURCES & CREDITS :

   NOAA